LTAF Airport Information

Runway Information
Runway 05 Length 9022 ft width 148 ft
Elevation 54 ft Threshold 0 ft Heading 54
Runway 23 Length 9022 ft Width 148 ft
Elevation 65 ft Threshold 0 ft Heading 234
Airport Frequencies
Type APP Name INCIRLIK A Frequency 126.5 MHZ
Type ATIS Name Frequency 119.225 MHZ
Type GND Name Frequency 121.9 MHZ
Type TWR Name TWR Frequency 121.1 MHZ
Airport Navaids
Type VOR-DME Name Adana Frequency 112700 KHZ
Type NDB Name Adana Frequency 395 KHZ
Airport Weather Information & NOTAM
ADDS - METARS form results

(2017 UTC 22 July 2018)
 
METAR text: LTAF 221950Z 12004KT 9999 SCT035 28/25 Q1004 NOSIG RMK RWY23 16007KT 130V190
Conditions at: LTAF (ADANA/SAKIRPASA , TR) observed 1950 UTC 22 July 2018
Temperature: 28.0°C (82°F)
Dewpoint: 25.0°C (77°F) [RH = 84%]
Pressure (altimeter): 29.65 inches Hg (1004.0 mb)
Winds: from the ESE (120 degrees) at 5 MPH (4 knots; 2.1 m/s)
Visibility: 6 or more miles (10+ km)
Ceiling: at least 12,000 feet AGL
Clouds: scattered clouds at 3500 feet AGL
Weather: no significant weather observed at this time

METAR text: LTAF 221920Z 12004KT 090V150 9999 SCT035 28/26 Q1004 NOSIG RMK RWY23 15006KT 120V190
Conditions at: LTAF (ADANA/SAKIRPASA , TR) observed 1920 UTC 22 July 2018
Temperature: 28.0°C (82°F)
Dewpoint: 26.0°C (79°F) [RH = 89%]
Pressure (altimeter): 29.65 inches Hg (1004.0 mb)
Winds: from the ESE (120 degrees) at 5 MPH (4 knots; 2.1 m/s)
Visibility: 6 or more miles (10+ km)
Ceiling: at least 12,000 feet AGL
Clouds: scattered clouds at 3500 feet AGL
Weather: no significant weather observed at this time